sensor_id;sensor_type;location;lat;lon;timestamp;P1;durP1;ratioP1;P2;durP2;ratioP2
177;SDS011;77;48.792;9.032;2023-05-07T00:00:12;8.43;;;4.90;;
177;SDS011;77;48.792;9.032;2023-05-07T00:02:38;7.10;;;4.87;;
177;SDS011;77;48.792;9.032;2023-05-07T00:05:05;6.40;;;4.50;;
177;SDS011;77;48.792;9.032;2023-05-07T00:07:30;7.87;;;4.80;;
177;SDS011;77;48.792;9.032;2023-05-07T00:09:55;7.73;;;4.73;;
177;SDS011;77;48.792;9.032;2023-05-07T00:12:20;6.23;;;4.53;;
177;SDS011;77;48.792;9.032;2023-05-07T00:14:45;6.83;;;4.80;;
177;SDS011;77;48.792;9.032;2023-05-07T00:17:11;8.40;;;4.73;;
177;SDS011;77;48.792;9.032;2023-05-07T00:19:36;6.97;;;4.77;;
177;SDS011;77;48.792;9.032;2023-05-07T00:22:02;7.53;;;5.13;;
177;SDS011;77;48.792;9.032;2023-05-07T00:24:27;11.10;;;5.07;;
177;SDS011;77;48.792;9.032;2023-05-07T00:26:53;10.60;;;5.40;;
177;SDS011;77;48.792;9.032;2023-05-07T00:29:18;8.40;;;4.80;;
177;SDS011;77;48.792;9.032;2023-05-07T00:31:43;8.63;;;5.67;;
177;SDS011;77;48.792;9.032;2023-05-07T00:34:08;7.70;;;5.00;;
177;SDS011;77;48.792;9.032;2023-05-07T00:36:33;7.77;;;5.00;;
177;SDS011;77;48.792;9.032;2023-05-07T00:39:00;7.50;;;5.10;;
177;SDS011;77;48.792;9.032;2023-05-07T00:41:25;8.03;;;4.93;;
177;SDS011;77;48.792;9.032;2023-05-07T00:43:51;10.60;;;6.20;;
177;SDS011;77;48.792;9.032;2023-05-07T00:48:54;8.53;;;4.60;;
177;SDS011;77;48.792;9.032;2023-05-07T00:51:19;7.90;;;5.60;;
177;SDS011;77;48.792;9.032;2023-05-07T00:53:44;7.37;;;4.97;;
177;SDS011;77;48.792;9.032;2023-05-07T00:56:11;7.80;;;5.20;;
177;SDS011;77;48.792;9.032;2023-05-07T00:58:36;7.30;;;5.17;;
177;SDS011;77;48.792;9.032;2023-05-07T01:01:02;8.43;;;4.73;;
177;SDS011;77;48.792;9.032;2023-05-07T01:03:27;6.90;;;4.60;;
177;SDS011;77;48.792;9.032;2023-05-07T01:05:52;7.47;;;5.13;;
177;SDS011;77;48.792;9.032;2023-05-07T01:08:17;9.23;;;4.90;;
177;SDS011;77;48.792;9.032;2023-05-07T01:10:43;9.67;;;5.47;;
177;SDS011;77;48.792;9.032;2023-05-07T01:13:10;8.70;;;5.50;;
177;SDS011;77;48.792;9.032;2023-05-07T01:15:36;7.60;;;5.00;;
177;SDS011;77;48.792;9.032;2023-05-07T01:18:01;7.07;;;5.10;;
177;SDS011;77;48.792;9.032;2023-05-07T01:20:26;9.40;;;5.10;;
177;SDS011;77;48.792;9.032;2023-05-07T01:22:54;10.60;;;5.03;;
177;SDS011;77;48.792;9.032;2023-05-07T01:25:19;7.10;;;4.93;;
177;SDS011;77;48.792;9.032;2023-05-07T01:27:44;7.30;;;4.80;;
177;SDS011;77;48.792;9.032;2023-05-07T01:30:10;7.30;;;4.73;;
177;SDS011;77;48.792;9.032;2023-05-07T01:32:36;8.10;;;5.50;;
177;SDS011;77;48.792;9.032;2023-05-07T01:35:02;7.27;;;4.80;;
177;SDS011;77;48.792;9.032;2023-05-07T01:37:28;7.47;;;5.00;;
177;SDS011;77;48.792;9.032;2023-05-07T01:39:55;8.23;;;5.27;;
177;SDS011;77;48.792;9.032;2023-05-07T01:42:21;8.80;;;5.40;;
177;SDS011;77;48.792;9.032;2023-05-07T01:44:46;7.70;;;4.87;;
177;SDS011;77;48.792;9.032;2023-05-07T01:47:12;9.37;;;5.20;;
177;SDS011;77;48.792;9.032;2023-05-07T01:49:37;8.43;;;5.30;;
177;SDS011;77;48.792;9.032;2023-05-07T01:52:02;7.57;;;5.20;;
177;SDS011;77;48.792;9.032;2023-05-07T01:54:28;9.20;;;5.10;;
177;SDS011;77;48.792;9.032;2023-05-07T01:56:55;9.27;;;5.27;;
177;SDS011;77;48.792;9.032;2023-05-07T01:59:20;7.60;;;4.50;;
177;SDS011;77;48.792;9.032;2023-05-07T02:01:45;6.93;;;4.80;;
177;SDS011;77;48.792;9.032;2023-05-07T02:04:10;7.50;;;4.80;;
177;SDS011;77;48.792;9.032;2023-05-07T02:06:36;8.53;;;5.40;;
177;SDS011;77;48.792;9.032;2023-05-07T02:09:01;8.43;;;5.13;;
177;SDS011;77;48.792;9.032;2023-05-07T02:11:26;7.63;;;5.07;;
177;SDS011;77;48.792;9.032;2023-05-07T02:13:52;8.57;;;5.10;;
177;SDS011;77;48.792;9.032;2023-05-07T02:16:18;6.60;;;4.90;;
177;SDS011;77;48.792;9.032;2023-05-07T02:18:43;8.70;;;5.00;;
177;SDS011;77;48.792;9.032;2023-05-07T02:21:08;7.10;;;4.70;;
177;SDS011;77;48.792;9.032;2023-05-07T02:23:33;10.53;;;4.87;;
177;SDS011;77;48.792;9.032;2023-05-07T02:25:58;7.13;;;4.97;;
177;SDS011;77;48.792;9.032;2023-05-07T02:28:23;9.03;;;4.80;;
177;SDS011;77;48.792;9.032;2023-05-07T02:30:50;9.43;;;4.80;;
177;SDS011;77;48.792;9.032;2023-05-07T02:33:15;7.57;;;4.97;;
177;SDS011;77;48.792;9.032;2023-05-07T02:35:40;7.80;;;5.40;;
177;SDS011;77;48.792;9.032;2023-05-07T02:38:05;8.80;;;5.00;;
177;SDS011;77;48.792;9.032;2023-05-07T02:40:30;8.07;;;4.73;;
177;SDS011;77;48.792;9.032;2023-05-07T02:42:56;7.90;;;4.93;;
177;SDS011;77;48.792;9.032;2023-05-07T02:45:21;6.30;;;4.30;;
177;SDS011;77;48.792;9.032;2023-05-07T02:47:47;7.30;;;4.90;;
177;SDS011;77;48.792;9.032;2023-05-07T02:50:13;8.53;;;4.80;;
177;SDS011;77;48.792;9.032;2023-05-07T02:52:38;7.10;;;4.60;;
177;SDS011;77;48.792;9.032;2023-05-07T02:55:03;8.10;;;4.90;;
177;SDS011;77;48.792;9.032;2023-05-07T02:57:28;7.73;;;4.40;;
177;SDS011;77;48.792;9.032;2023-05-07T02:59:54;8.80;;;4.50;;
177;SDS011;77;48.792;9.032;2023-05-07T03:02:19;6.93;;;4.73;;
177;SDS011;77;48.792;9.032;2023-05-07T03:04:45;7.70;;;4.70;;
177;SDS011;77;48.792;9.032;2023-05-07T03:07:10;7.83;;;5.00;;
177;SDS011;77;48.792;9.032;2023-05-07T03:09:35;7.70;;;4.87;;
177;SDS011;77;48.792;9.032;2023-05-07T03:12:01;9.03;;;5.10;;
177;SDS011;77;48.792;9.032;2023-05-07T03:14:26;7.30;;;5.10;;
177;SDS011;77;48.792;9.032;2023-05-07T03:16:51;7.70;;;4.90;;
177;SDS011;77;48.792;9.032;2023-05-07T03:19:16;7.40;;;4.80;;
177;SDS011;77;48.792;9.032;2023-05-07T03:21:43;8.23;;;4.90;;
177;SDS011;77;48.792;9.032;2023-05-07T03:24:08;6.63;;;4.40;;
177;SDS011;77;48.792;9.032;2023-05-07T03:26:33;7.03;;;4.30;;
177;SDS011;77;48.792;9.032;2023-05-07T03:28:58;8.70;;;4.97;;
177;SDS011;77;48.792;9.032;2023-05-07T03:31:23;8.87;;;4.77;;
177;SDS011;77;48.792;9.032;2023-05-07T03:33:49;8.60;;;4.40;;
177;SDS011;77;48.792;9.032;2023-05-07T03:36:15;7.60;;;4.53;;
177;SDS011;77;48.792;9.032;2023-05-07T03:38:41;8.23;;;4.70;;
177;SDS011;77;48.792;9.032;2023-05-07T03:41:06;7.50;;;4.90;;
177;SDS011;77;48.792;9.032;2023-05-07T03:43:31;8.30;;;4.40;;
177;SDS011;77;48.792;9.032;2023-05-07T03:45:56;7.43;;;4.83;;
177;SDS011;77;48.792;9.032;2023-05-07T03:48:22;8.53;;;4.70;;
177;SDS011;77;48.792;9.032;2023-05-07T03:50:47;7.10;;;4.80;;
177;SDS011;77;48.792;9.032;2023-05-07T03:53:12;8.13;;;4.80;;
177;SDS011;77;48.792;9.032;2023-05-07T03:55:38;8.23;;;4.87;;
177;SDS011;77;48.792;9.032;2023-05-07T03:58:04;7.93;;;5.00;;
177;SDS011;77;48.792;9.032;2023-05-07T04:00:29;10.53;;;5.07;;
177;SDS011;77;48.792;9.032;2023-05-07T04:02:54;6.70;;;4.53;;
177;SDS011;77;48.792;9.032;2023-05-07T04:05:19;6.83;;;4.50;;
177;SDS011;77;48.792;9.032;2023-05-07T04:07:44;8.10;;;4.90;;
177;SDS011;77;48.792;9.032;2023-05-07T04:10:09;7.20;;;4.70;;
177;SDS011;77;48.792;9.032;2023-05-07T04:12:36;8.07;;;4.90;;
177;SDS011;77;48.792;9.032;2023-05-07T04:15:01;7.33;;;4.80;;
177;SDS011;77;48.792;9.032;2023-05-07T04:17:26;8.20;;;4.90;;
177;SDS011;77;48.792;9.032;2023-05-07T04:19:51;9.77;;;5.10;;
177;SDS011;77;48.792;9.032;2023-05-07T04:22:16;9.80;;;5.20;;
177;SDS011;77;48.792;9.032;2023-05-07T04:24:42;7.63;;;4.70;;
177;SDS011;77;48.792;9.032;2023-05-07T04:27:07;9.20;;;5.03;;
177;SDS011;77;48.792;9.032;2023-05-07T04:29:33;7.60;;;4.60;;
177;SDS011;77;48.792;9.032;2023-05-07T04:31:58;8.10;;;5.10;;
177;SDS011;77;48.792;9.032;2023-05-07T04:34:24;8.07;;;5.23;;
177;SDS011;77;48.792;9.032;2023-05-07T04:36:49;8.40;;;5.10;;
177;SDS011;77;48.792;9.032;2023-05-07T04:39:14;8.93;;;5.20;;
177;SDS011;77;48.792;9.032;2023-05-07T04:41:39;12.87;;;5.60;;
177;SDS011;77;48.792;9.032;2023-05-07T04:44:04;7.90;;;4.80;;
177;SDS011;77;48.792;9.032;2023-05-07T04:46:31;8.07;;;5.20;;
177;SDS011;77;48.792;9.032;2023-05-07T04:48:56;8.50;;;4.80;;
177;SDS011;77;48.792;9.032;2023-05-07T04:51:21;7.70;;;4.80;;
177;SDS011;77;48.792;9.032;2023-05-07T04:53:46;7.70;;;4.90;;
177;SDS011;77;48.792;9.032;2023-05-07T04:56:11;7.50;;;4.80;;
177;SDS011;77;48.792;9.032;2023-05-07T04:58:36;9.83;;;5.30;;
177;SDS011;77;48.792;9.032;2023-05-07T05:01:02;8.60;;;4.80;;
177;SDS011;77;48.792;9.032;2023-05-07T05:03:28;9.03;;;4.63;;
177;SDS011;77;48.792;9.032;2023-05-07T05:05:53;8.50;;;4.37;;
177;SDS011;77;48.792;9.032;2023-05-07T05:08:18;7.60;;;4.37;;
177;SDS011;77;48.792;9.032;2023-05-07T05:10:43;8.00;;;4.70;;
177;SDS011;77;48.792;9.032;2023-05-07T05:13:09;8.00;;;5.20;;
177;SDS011;77;48.792;9.032;2023-05-07T05:15:34;10.53;;;4.87;;
177;SDS011;77;48.792;9.032;2023-05-07T05:17:59;7.37;;;4.67;;
177;SDS011;77;48.792;9.032;2023-05-07T05:20:25;8.00;;;4.90;;
177;SDS011;77;48.792;9.032;2023-05-07T05:22:51;9.23;;;5.50;;
177;SDS011;77;48.792;9.032;2023-05-07T05:25:16;8.60;;;4.67;;
177;SDS011;77;48.792;9.032;2023-05-07T05:27:41;7.93;;;5.00;;
177;SDS011;77;48.792;9.032;2023-05-07T05:30:06;8.40;;;5.17;;
177;SDS011;77;48.792;9.032;2023-05-07T05:32:32;9.47;;;5.10;;
177;SDS011;77;48.792;9.032;2023-05-07T05:34:57;8.80;;;5.33;;
177;SDS011;77;48.792;9.032;2023-05-07T05:37:24;8.00;;;4.80;;
177;SDS011;77;48.792;9.032;2023-05-07T05:39:49;8.30;;;5.20;;
177;SDS011;77;48.792;9.032;2023-05-07T05:42:14;8.00;;;4.70;;
177;SDS011;77;48.792;9.032;2023-05-07T05:44:40;8.40;;;4.93;;
177;SDS011;77;48.792;9.032;2023-05-07T05:47:05;7.40;;;4.80;;
177;SDS011;77;48.792;9.032;2023-05-07T05:49:30;8.20;;;4.90;;
177;SDS011;77;48.792;9.032;2023-05-07T05:51:55;8.43;;;4.80;;
177;SDS011;77;48.792;9.032;2023-05-07T05:54:22;9.77;;;5.30;;
177;SDS011;77;48.792;9.032;2023-05-07T05:56:47;9.90;;;5.00;;
177;SDS011;77;48.792;9.032;2023-05-07T05:59:12;8.93;;;5.03;;
177;SDS011;77;48.792;9.032;2023-05-07T06:01:37;9.00;;;5.00;;
177;SDS011;77;48.792;9.032;2023-05-07T06:04:03;9.13;;;5.10;;
177;SDS011;77;48.792;9.032;2023-05-07T06:06:28;8.73;;;4.97;;
177;SDS011;77;48.792;9.032;2023-05-07T06:08:53;8.00;;;5.23;;
177;SDS011;77;48.792;9.032;2023-05-07T06:11:20;8.23;;;5.40;;
177;SDS011;77;48.792;9.032;2023-05-07T06:13:45;8.10;;;4.77;;
177;SDS011;77;48.792;9.032;2023-05-07T06:16:10;9.53;;;5.00;;
177;SDS011;77;48.792;9.032;2023-05-07T06:18:35;7.40;;;5.00;;
177;SDS011;77;48.792;9.032;2023-05-07T06:21:01;8.50;;;4.80;;
177;SDS011;77;48.792;9.032;2023-05-07T06:23:26;7.10;;;4.57;;
177;SDS011;77;48.792;9.032;2023-05-07T06:25:51;8.73;;;5.10;;
177;SDS011;77;48.792;9.032;2023-05-07T06:28:17;8.17;;;5.10;;
177;SDS011;77;48.792;9.032;2023-05-07T06:30:43;6.90;;;4.60;;
177;SDS011;77;48.792;9.032;2023-05-07T06:33:08;7.77;;;5.00;;
177;SDS011;77;48.792;9.032;2023-05-07T06:35:33;8.40;;;4.70;;
177;SDS011;77;48.792;9.032;2023-05-07T06:37:59;10.20;;;4.50;;
177;SDS011;77;48.792;9.032;2023-05-07T06:40:24;7.67;;;4.60;;
177;SDS011;77;48.792;9.032;2023-05-07T06:42:49;7.43;;;4.80;;
177;SDS011;77;48.792;9.032;2023-05-07T06:45:16;9.17;;;5.10;;
177;SDS011;77;48.792;9.032;2023-05-07T06:47:41;8.43;;;4.57;;
177;SDS011;77;48.792;9.032;2023-05-07T06:50:07;9.17;;;4.90;;
177;SDS011;77;48.792;9.032;2023-05-07T06:52:32;10.10;;;4.77;;
177;SDS011;77;48.792;9.032;2023-05-07T06:54:57;10.50;;;5.57;;
177;SDS011;77;48.792;9.032;2023-05-07T06:57:23;8.13;;;5.27;;
177;SDS011;77;48.792;9.032;2023-05-07T06:59:48;8.10;;;4.90;;
177;SDS011;77;48.792;9.032;2023-05-07T07:02:15;8.03;;;4.97;;
177;SDS011;77;48.792;9.032;2023-05-07T07:04:40;8.33;;;5.47;;
177;SDS011;77;48.792;9.032;2023-05-07T07:07:05;6.90;;;4.80;;
177;SDS011;77;48.792;9.032;2023-05-07T07:09:30;8.10;;;5.23;;
177;SDS011;77;48.792;9.032;2023-05-07T07:11:56;7.87;;;5.00;;
177;SDS011;77;48.792;9.032;2023-05-07T07:14:21;7.10;;;4.93;;
177;SDS011;77;48.792;9.032;2023-05-07T07:16:46;7.10;;;5.20;;
177;SDS011;77;48.792;9.032;2023-05-07T07:19:12;6.50;;;4.70;;
177;SDS011;77;48.792;9.032;2023-05-07T07:21:38;8.27;;;4.83;;
177;SDS011;77;48.792;9.032;2023-05-07T07:24:03;6.97;;;4.60;;
177;SDS011;77;48.792;9.032;2023-05-07T07:26:28;7.93;;;5.00;;
177;SDS011;77;48.792;9.032;2023-05-07T07:28:54;12.93;;;5.20;;
177;SDS011;77;48.792;9.032;2023-05-07T07:31:19;7.40;;;4.90;;
177;SDS011;77;48.792;9.032;2023-05-07T07:33:44;7.40;;;4.37;;
177;SDS011;77;48.792;9.032;2023-05-07T07:36:11;6.10;;;4.33;;
177;SDS011;77;48.792;9.032;2023-05-07T07:38:36;9.43;;;4.90;;
177;SDS011;77;48.792;9.032;2023-05-07T07:41:01;6.90;;;4.60;;
177;SDS011;77;48.792;9.032;2023-05-07T07:43:26;6.73;;;4.20;;
177;SDS011;77;48.792;9.032;2023-05-07T07:45:52;7.70;;;5.20;;
177;SDS011;77;48.792;9.032;2023-05-07T07:48:17;7.00;;;4.67;;
177;SDS011;77;48.792;9.032;2023-05-07T07:50:42;7.77;;;4.70;;
177;SDS011;77;48.792;9.032;2023-05-07T07:53:09;9.20;;;5.07;;
177;SDS011;77;48.792;9.032;2023-05-07T07:55:37;11.10;;;5.13;;
177;SDS011;77;48.792;9.032;2023-05-07T07:58:03;10.03;;;4.77;;
177;SDS011;77;48.792;9.032;2023-05-07T08:00:28;8.03;;;4.50;;
177;SDS011;77;48.792;9.032;2023-05-07T08:02:53;5.80;;;4.23;;
177;SDS011;77;48.792;9.032;2023-05-07T08:05:18;9.43;;;4.67;;
177;SDS011;77;48.792;9.032;2023-05-07T08:07:44;6.80;;;4.47;;
177;SDS011;77;48.792;9.032;2023-05-07T08:10:11;8.97;;;4.93;;
177;SDS011;77;48.792;9.032;2023-05-07T08:12:36;6.97;;;4.80;;
177;SDS011;77;48.792;9.032;2023-05-07T08:15:01;6.20;;;3.97;;
177;SDS011;77;48.792;9.032;2023-05-07T08:17:26;7.77;;;4.70;;
177;SDS011;77;48.792;9.032;2023-05-07T08:19:51;5.50;;;4.13;;
177;SDS011;77;48.792;9.032;2023-05-07T08:22:16;6.37;;;4.37;;
177;SDS011;77;48.792;9.032;2023-05-07T08:24:42;6.20;;;4.53;;
177;SDS011;77;48.792;9.032;2023-05-07T08:27:08;6.20;;;4.33;;
177;SDS011;77;48.792;9.032;2023-05-07T08:29:33;6.30;;;4.10;;
177;SDS011;77;48.792;9.032;2023-05-07T08:31:59;5.80;;;4.07;;
177;SDS011;77;48.792;9.032;2023-05-07T08:34:24;5.40;;;3.90;;
177;SDS011;77;48.792;9.032;2023-05-07T08:36:49;6.77;;;4.30;;
177;SDS011;77;48.792;9.032;2023-05-07T08:39:14;7.37;;;4.13;;
177;SDS011;77;48.792;9.032;2023-05-07T08:41:40;6.30;;;4.23;;
177;SDS011;77;48.792;9.032;2023-05-07T08:44:06;6.83;;;4.37;;
177;SDS011;77;48.792;9.032;2023-05-07T08:46:36;5.97;;;4.30;;
177;SDS011;77;48.792;9.032;2023-05-07T08:49:01;6.33;;;4.00;;
177;SDS011;77;48.792;9.032;2023-05-07T08:51:27;7.60;;;4.20;;
177;SDS011;77;48.792;9.032;2023-05-07T08:53:52;12.40;;;4.50;;
177;SDS011;77;48.792;9.032;2023-05-07T08:56:17;11.30;;;4.53;;
177;SDS011;77;48.792;9.032;2023-05-07T08:58:43;9.17;;;4.50;;
177;SDS011;77;48.792;9.032;2023-05-07T09:01:10;5.90;;;4.30;;
177;SDS011;77;48.792;9.032;2023-05-07T09:03:38;6.27;;;4.30;;
177;SDS011;77;48.792;9.032;2023-05-07T09:06:03;6.40;;;4.37;;
177;SDS011;77;48.792;9.032;2023-05-07T09:08:28;6.40;;;3.97;;
177;SDS011;77;48.792;9.032;2023-05-07T09:10:54;6.20;;;4.17;;
177;SDS011;77;48.792;9.032;2023-05-07T09:13:19;6.40;;;4.10;;
177;SDS011;77;48.792;9.032;2023-05-07T09:15:44;6.20;;;4.20;;
177;SDS011;77;48.792;9.032;2023-05-07T09:18:11;5.80;;;4.10;;
177;SDS011;77;48.792;9.032;2023-05-07T09:20:37;6.57;;;4.27;;
177;SDS011;77;48.792;9.032;2023-05-07T09:23:02;13.63;;;5.43;;
177;SDS011;77;48.792;9.032;2023-05-07T09:25:28;6.20;;;4.13;;
177;SDS011;77;48.792;9.032;2023-05-07T09:27:53;6.53;;;4.80;;
177;SDS011;77;48.792;9.032;2023-05-07T09:30:18;7.50;;;3.93;;
177;SDS011;77;48.792;9.032;2023-05-07T09:32:43;6.20;;;3.80;;
177;SDS011;77;48.792;9.032;2023-05-07T09:35:15;5.90;;;3.60;;
177;SDS011;77;48.792;9.032;2023-05-07T09:37:40;4.97;;;4.10;;
177;SDS011;77;48.792;9.032;2023-05-07T09:40:07;7.80;;;4.57;;
177;SDS011;77;48.792;9.032;2023-05-07T09:42:32;5.80;;;3.90;;
177;SDS011;77;48.792;9.032;2023-05-07T09:44:58;5.40;;;4.40;;
177;SDS011;77;48.792;9.032;2023-05-07T09:47:24;4.87;;;3.83;;
177;SDS011;77;48.792;9.032;2023-05-07T09:49:49;6.00;;;4.40;;
177;SDS011;77;48.792;9.032;2023-05-07T09:52:16;6.60;;;4.10;;
177;SDS011;77;48.792;9.032;2023-05-07T09:54:41;5.27;;;4.13;;
177;SDS011;77;48.792;9.032;2023-05-07T09:57:08;6.03;;;4.10;;
177;SDS011;77;48.792;9.032;2023-05-07T09:59:34;8.53;;;4.10;;
177;SDS011;77;48.792;9.032;2023-05-07T10:02:00;6.43;;;3.83;;
177;SDS011;77;48.792;9.032;2023-05-07T10:04:26;6.07;;;4.33;;
177;SDS011;77;48.792;9.032;2023-05-07T10:06:52;6.93;;;4.50;;
177;SDS011;77;48.792;9.032;2023-05-07T10:09:18;6.70;;;4.20;;
177;SDS011;77;48.792;9.032;2023-05-07T10:11:44;6.10;;;4.30;;
177;SDS011;77;48.792;9.032;2023-05-07T10:14:10;6.90;;;4.10;;
177;SDS011;77;48.792;9.032;2023-05-07T10:16:36;6.20;;;4.60;;
177;SDS011;77;48.792;9.032;2023-05-07T10:19:02;5.13;;;4.10;;
177;SDS011;77;48.792;9.032;2023-05-07T11:20:55;7.95;;;4.95;;
177;SDS011;77;48.792;9.032;2023-05-07T11:26:05;7.60;;;5.23;;
177;SDS011;77;48.792;9.032;2023-05-07T11:28:30;7.90;;;5.20;;
177;SDS011;77;48.792;9.032;2023-05-07T11:30:56;6.97;;;5.20;;
177;SDS011;77;48.792;9.032;2023-05-07T11:33:22;11.40;;;6.17;;
177;SDS011;77;48.792;9.032;2023-05-07T11:35:47;9.80;;;6.20;;
177;SDS011;77;48.792;9.032;2023-05-07T11:38:14;11.63;;;6.40;;
177;SDS011;77;48.792;9.032;2023-05-07T11:40:48;8.70;;;5.97;;
177;SDS011;77;48.792;9.032;2023-05-07T11:43:13;10.87;;;6.30;;
177;SDS011;77;48.792;9.032;2023-05-07T11:45:38;11.37;;;6.80;;
177;SDS011;77;48.792;9.032;2023-05-07T11:48:03;12.63;;;6.80;;
177;SDS011;77;48.792;9.032;2023-05-07T11:50:29;11.80;;;6.90;;
177;SDS011;77;48.792;9.032;2023-05-07T11:52:54;10.30;;;6.60;;
177;SDS011;77;48.792;9.032;2023-05-07T11:55:21;12.50;;;7.17;;
177;SDS011;77;48.792;9.032;2023-05-07T11:57:46;12.80;;;7.07;;
177;SDS011;77;48.792;9.032;2023-05-07T12:00:12;11.23;;;6.35;;
177;SDS011;77;48.792;9.032;2023-05-07T12:02:40;10.47;;;6.47;;
177;SDS011;77;48.792;9.032;2023-05-07T12:05:05;12.20;;;6.57;;
177;SDS011;77;48.792;9.032;2023-05-07T12:07:32;10.40;;;6.50;;
177;SDS011;77;48.792;9.032;2023-05-07T12:09:58;13.23;;;7.07;;
177;SDS011;77;48.792;9.032;2023-05-07T12:12:24;14.53;;;6.60;;
177;SDS011;77;48.792;9.032;2023-05-07T12:14:49;10.00;;;5.90;;
177;SDS011;77;48.792;9.032;2023-05-07T12:17:14;11.30;;;5.03;;
177;SDS011;77;48.792;9.032;2023-05-07T12:19:41;11.70;;;5.47;;
177;SDS011;77;48.792;9.032;2023-05-07T12:22:07;10.03;;;5.00;;
177;SDS011;77;48.792;9.032;2023-05-07T12:24:42;13.70;;;5.43;;
177;SDS011;77;48.792;9.032;2023-05-07T12:27:07;10.10;;;4.93;;
177;SDS011;77;48.792;9.032;2023-05-07T12:29:35;15.63;;;5.13;;
177;SDS011;77;48.792;9.032;2023-05-07T12:32:00;29.80;;;5.23;;
177;SDS011;77;48.792;9.032;2023-05-07T12:34:25;19.87;;;5.33;;
177;SDS011;77;48.792;9.032;2023-05-07T12:36:50;12.03;;;4.80;;
177;SDS011;77;48.792;9.032;2023-05-07T12:39:15;8.23;;;3.70;;
177;SDS011;77;48.792;9.032;2023-05-07T12:41:53;6.50;;;3.20;;
177;SDS011;77;48.792;9.032;2023-05-07T12:44:18;5.70;;;3.20;;
177;SDS011;77;48.792;9.032;2023-05-07T12:46:45;7.00;;;3.33;;
177;SDS011;77;48.792;9.032;2023-05-07T12:49:11;7.70;;;4.00;;
177;SDS011;77;48.792;9.032;2023-05-07T12:51:37;8.30;;;4.00;;
177;SDS011;77;48.792;9.032;2023-05-07T12:54:02;6.40;;;3.80;;
177;SDS011;77;48.792;9.032;2023-05-07T12:56:27;14.47;;;3.90;;
177;SDS011;77;48.792;9.032;2023-05-07T12:58:56;9.47;;;4.13;;
177;SDS011;77;48.792;9.032;2023-05-07T13:01:22;13.17;;;4.40;;
177;SDS011;77;48.792;9.032;2023-05-07T13:03:54;9.97;;;3.83;;
177;SDS011;77;48.792;9.032;2023-05-07T13:06:20;7.80;;;3.83;;
177;SDS011;77;48.792;9.032;2023-05-07T13:08:45;9.67;;;4.03;;
177;SDS011;77;48.792;9.032;2023-05-07T13:11:10;11.53;;;4.40;;
177;SDS011;77;48.792;9.032;2023-05-07T13:13:36;8.37;;;4.43;;
177;SDS011;77;48.792;9.032;2023-05-07T13:16:01;10.30;;;4.47;;
177;SDS011;77;48.792;9.032;2023-05-07T13:18:27;12.73;;;4.40;;
177;SDS011;77;48.792;9.032;2023-05-07T13:20:53;7.23;;;3.70;;
177;SDS011;77;48.792;9.032;2023-05-07T13:23:19;7.33;;;3.60;;
177;SDS011;77;48.792;9.032;2023-05-07T13:25:44;9.57;;;3.37;;
177;SDS011;77;48.792;9.032;2023-05-07T13:28:09;7.87;;;3.60;;
177;SDS011;77;48.792;9.032;2023-05-07T13:30:34;6.10;;;3.33;;
177;SDS011;77;48.792;9.032;2023-05-07T13:32:59;6.13;;;3.20;;
177;SDS011;77;48.792;9.032;2023-05-07T13:35:24;8.43;;;3.30;;
177;SDS011;77;48.792;9.032;2023-05-07T13:37:51;9.97;;;3.10;;
177;SDS011;77;48.792;9.032;2023-05-07T13:40:16;6.23;;;2.97;;
177;SDS011;77;48.792;9.032;2023-05-07T13:42:41;8.50;;;3.70;;
177;SDS011;77;48.792;9.032;2023-05-07T13:45:07;7.20;;;3.78;;
177;SDS011;77;48.792;9.032;2023-05-07T13:47:32;7.70;;;4.20;;
177;SDS011;77;48.792;9.032;2023-05-07T13:49:58;6.90;;;3.67;;
177;SDS011;77;48.792;9.032;2023-05-07T13:52:23;7.53;;;3.67;;
177;SDS011;77;48.792;9.032;2023-05-07T13:54:49;8.70;;;4.33;;
177;SDS011;77;48.792;9.032;2023-05-07T13:57:14;8.50;;;4.50;;
177;SDS011;77;48.792;9.032;2023-05-07T13:59:40;9.23;;;4.20;;
177;SDS011;77;48.792;9.032;2023-05-07T14:02:05;10.77;;;6.17;;
177;SDS011;77;48.792;9.032;2023-05-07T14:04:30;16.40;;;7.33;;
177;SDS011;77;48.792;9.032;2023-05-07T14:06:56;14.50;;;8.60;;
177;SDS011;77;48.792;9.032;2023-05-07T14:09:21;10.87;;;7.30;;
177;SDS011;77;48.792;9.032;2023-05-07T14:11:47;12.13;;;5.83;;
177;SDS011;77;48.792;9.032;2023-05-07T14:14:12;10.40;;;5.53;;
177;SDS011;77;48.792;9.032;2023-05-07T14:16:38;10.40;;;5.90;;
177;SDS011;77;48.792;9.032;2023-05-07T14:19:03;12.23;;;6.87;;
177;SDS011;77;48.792;9.032;2023-05-07T14:21:28;10.00;;;5.23;;
177;SDS011;77;48.792;9.032;2023-05-07T14:23:53;9.30;;;5.17;;
177;SDS011;77;48.792;9.032;2023-05-07T14:26:18;11.33;;;5.80;;
177;SDS011;77;48.792;9.032;2023-05-07T14:28:45;9.60;;;5.53;;
177;SDS011;77;48.792;9.032;2023-05-07T14:31:10;12.53;;;5.60;;
177;SDS011;77;48.792;9.032;2023-05-07T14:33:35;8.20;;;5.27;;
177;SDS011;77;48.792;9.032;2023-05-07T14:36:00;10.37;;;5.13;;
177;SDS011;77;48.792;9.032;2023-05-07T14:38:25;11.83;;;5.30;;
177;SDS011;77;48.792;9.032;2023-05-07T14:40:50;9.90;;;5.00;;
177;SDS011;77;48.792;9.032;2023-05-07T14:43:16;9.23;;;4.70;;
177;SDS011;77;48.792;9.032;2023-05-07T14:45:42;12.70;;;5.33;;
177;SDS011;77;48.792;9.032;2023-05-07T14:48:07;9.47;;;4.40;;
177;SDS011;77;48.792;9.032;2023-05-07T14:50:32;9.50;;;4.67;;
177;SDS011;77;48.792;9.032;2023-05-07T14:52:58;9.60;;;4.40;;
177;SDS011;77;48.792;9.032;2023-05-07T14:55:23;8.23;;;4.87;;
177;SDS011;77;48.792;9.032;2023-05-07T14:57:48;8.50;;;4.40;;
177;SDS011;77;48.792;9.032;2023-05-07T15:00:13;8.37;;;4.63;;
177;SDS011;77;48.792;9.032;2023-05-07T15:02:40;10.00;;;4.60;;
177;SDS011;77;48.792;9.032;2023-05-07T15:05:05;9.40;;;4.80;;
177;SDS011;77;48.792;9.032;2023-05-07T15:07:31;7.73;;;4.67;;
177;SDS011;77;48.792;9.032;2023-05-07T15:09:56;8.90;;;4.30;;
177;SDS011;77;48.792;9.032;2023-05-07T15:12:21;8.67;;;4.33;;
177;SDS011;77;48.792;9.032;2023-05-07T15:14:46;9.70;;;4.27;;
177;SDS011;77;48.792;9.032;2023-05-07T15:17:11;9.20;;;4.40;;
177;SDS011;77;48.792;9.032;2023-05-07T15:19:38;8.77;;;4.20;;
177;SDS011;77;48.792;9.032;2023-05-07T15:22:03;7.80;;;4.20;;
177;SDS011;77;48.792;9.032;2023-05-07T15:24:28;7.53;;;4.43;;
177;SDS011;77;48.792;9.032;2023-05-07T15:26:53;8.40;;;4.50;;
177;SDS011;77;48.792;9.032;2023-05-07T15:29:18;8.10;;;4.10;;
177;SDS011;77;48.792;9.032;2023-05-07T15:31:43;7.90;;;4.43;;
177;SDS011;77;48.792;9.032;2023-05-07T15:34:09;7.70;;;4.20;;
177;SDS011;77;48.792;9.032;2023-05-07T15:36:35;11.50;;;4.30;;
177;SDS011;77;48.792;9.032;2023-05-07T15:39:00;6.90;;;4.10;;
177;SDS011;77;48.792;9.032;2023-05-07T15:41:26;6.80;;;3.80;;
177;SDS011;77;48.792;9.032;2023-05-07T15:43:51;7.10;;;4.10;;
177;SDS011;77;48.792;9.032;2023-05-07T15:46:17;7.57;;;3.90;;
177;SDS011;77;48.792;9.032;2023-05-07T15:48:42;8.93;;;4.93;;
177;SDS011;77;48.792;9.032;2023-05-07T15:51:07;9.70;;;4.40;;
177;SDS011;77;48.792;9.032;2023-05-07T15:53:34;11.33;;;4.50;;
177;SDS011;77;48.792;9.032;2023-05-07T15:55:59;9.40;;;4.93;;
177;SDS011;77;48.792;9.032;2023-05-07T15:58:24;8.30;;;5.07;;
177;SDS011;77;48.792;9.032;2023-05-07T16:00:50;9.10;;;5.27;;
177;SDS011;77;48.792;9.032;2023-05-07T16:03:16;7.37;;;4.47;;
177;SDS011;77;48.792;9.032;2023-05-07T16:05:41;8.25;;;4.63;;
177;SDS011;77;48.792;9.032;2023-05-07T16:08:06;8.63;;;4.50;;
177;SDS011;77;48.792;9.032;2023-05-07T16:10:32;8.67;;;4.73;;
177;SDS011;77;48.792;9.032;2023-05-07T16:12:57;10.90;;;4.90;;
177;SDS011;77;48.792;9.032;2023-05-07T16:18:07;10.00;;;5.40;;
177;SDS011;77;48.792;9.032;2023-05-07T16:20:32;8.60;;;4.77;;
177;SDS011;77;48.792;9.032;2023-05-07T16:33:45;11.30;;;5.30;;
177;SDS011;77;48.792;9.032;2023-05-07T16:36:10;8.50;;;4.87;;
177;SDS011;77;48.792;9.032;2023-05-07T16:38:36;11.87;;;5.33;;
177;SDS011;77;48.792;9.032;2023-05-07T16:41:01;10.43;;;5.27;;
177;SDS011;77;48.792;9.032;2023-05-07T16:43:26;9.53;;;5.20;;
177;SDS011;77;48.792;9.032;2023-05-07T16:45:51;9.60;;;5.50;;
177;SDS011;77;48.792;9.032;2023-05-07T16:48:16;9.20;;;5.17;;
177;SDS011;77;48.792;9.032;2023-05-07T16:50:43;10.30;;;4.73;;
177;SDS011;77;48.792;9.032;2023-05-07T16:53:08;8.80;;;5.10;;
177;SDS011;77;48.792;9.032;2023-05-07T16:55:34;11.03;;;5.30;;
177;SDS011;77;48.792;9.032;2023-05-07T16:58:00;9.33;;;5.00;;
177;SDS011;77;48.792;9.032;2023-05-07T17:00:25;14.07;;;5.05;;
177;SDS011;77;48.792;9.032;2023-05-07T17:02:50;9.73;;;5.60;;